createdAt,value
2022-10-14T00:02:50.851Z,11.6
2022-10-14T00:05:50.854Z,11.6
2022-10-14T00:08:50.882Z,11.6
2022-10-14T00:11:50.862Z,11.6
2022-10-14T00:14:50.871Z,11.5
2022-10-14T00:17:50.872Z,11.5
2022-10-14T00:20:50.887Z,11.4
2022-10-14T00:23:50.895Z,11.4
2022-10-14T00:26:50.920Z,11.3
2022-10-14T00:29:50.902Z,11.2
2022-10-14T00:32:50.912Z,11.2
2022-10-14T00:35:50.917Z,11.2
2022-10-14T00:38:50.930Z,11.2
2022-10-14T00:41:50.921Z,11.2
2022-10-14T00:44:50.949Z,11.2
2022-10-14T00:47:50.940Z,11.3
2022-10-14T00:50:50.939Z,11.3
2022-10-14T00:53:50.947Z,11.3
2022-10-14T00:56:50.962Z,11.3
2022-10-14T00:59:50.966Z,11.4
2022-10-14T01:02:50.996Z,11.4
2022-10-14T01:05:50.983Z,11.4
2022-10-14T01:08:50.992Z,11.4
2022-10-14T01:12:00.251Z,11.4
2022-10-14T01:14:51.002Z,11.4
2022-10-14T01:17:51.004Z,11.4
2022-10-14T01:20:51.031Z,11.4
2022-10-14T01:23:51.018Z,11.4
2022-10-14T01:26:51.028Z,11.5
2022-10-14T01:29:51.037Z,11.5
2022-10-14T01:32:51.038Z,11.5
2022-10-14T01:35:51.053Z,11.5
2022-10-14T01:38:51.089Z,11.6
2022-10-14T01:41:51.056Z,11.7
2022-10-14T01:44:51.060Z,11.7
2022-10-14T01:47:51.069Z,11.8
2022-10-14T01:50:51.079Z,11.8
2022-10-14T01:53:51.097Z,11.8
2022-10-14T01:56:51.113Z,11.8
2022-10-14T01:59:51.102Z,11.8
2022-10-14T02:02:51.105Z,11.8
2022-10-14T02:05:51.112Z,11.8
2022-10-14T02:08:51.128Z,11.8
2022-10-14T02:11:51.123Z,11.8
2022-10-14T02:14:51.166Z,11.8
2022-10-14T02:17:51.151Z,11.7
2022-10-14T02:20:51.159Z,11.7
2022-10-14T02:23:51.179Z,11.7
2022-10-14T02:26:51.176Z,11.7
2022-10-14T02:29:51.184Z,11.7
2022-10-14T02:32:51.211Z,11.8
2022-10-14T02:35:51.184Z,11.8
2022-10-14T02:38:51.208Z,11.8
2022-10-14T02:41:51.204Z,11.8
2022-10-14T02:44:51.210Z,11.8
2022-10-14T02:47:51.220Z,11.9
2022-10-14T02:50:51.247Z,11.9
2022-10-14T02:53:51.241Z,12
2022-10-14T02:56:51.238Z,12
2022-10-14T02:59:51.240Z,12.1
2022-10-14T03:02:51.252Z,12.1
2022-10-14T03:05:51.264Z,12.1
2022-10-14T03:08:51.303Z,12.2
2022-10-14T03:11:51.276Z,12.2
2022-10-14T03:14:51.279Z,12.2
2022-10-14T03:17:51.287Z,12.2
2022-10-14T03:20:51.286Z,12.3
2022-10-14T03:23:51.315Z,12.3
2022-10-14T03:26:51.333Z,12.3
2022-10-14T03:29:51.316Z,12.3
2022-10-14T03:32:51.322Z,12.4
2022-10-14T03:35:51.335Z,12.4
2022-10-14T03:38:51.347Z,12.4
2022-10-14T03:41:51.343Z,12.4
2022-10-14T03:44:51.388Z,12.4
2022-10-14T03:47:51.370Z,12.4
2022-10-14T03:50:51.371Z,12.4
2022-10-14T03:53:51.388Z,12.5
2022-10-14T03:56:51.388Z,12.5
2022-10-14T03:59:51.396Z,12.5
2022-10-14T04:02:51.431Z,12.5
2022-10-14T04:05:51.419Z,12.5
2022-10-14T04:08:51.431Z,12.5
2022-10-14T04:11:51.430Z,12.5
2022-10-14T04:14:51.438Z,12.6
2022-10-14T04:17:51.450Z,12.6
2022-10-14T04:20:51.485Z,12.6
2022-10-14T04:23:51.487Z,12.6
2022-10-14T04:26:51.478Z,12.6
2022-10-14T04:29:51.489Z,12.6
2022-10-14T04:32:51.496Z,12.5
2022-10-14T04:35:51.520Z,12.6
2022-10-14T04:38:51.553Z,12.5
2022-10-14T04:41:51.527Z,12.5
2022-10-14T04:44:51.545Z,12.5
2022-10-14T04:47:51.548Z,12.5
2022-10-14T04:50:51.569Z,12.5
2022-10-14T04:53:51.587Z,12.5
2022-10-14T04:56:51.604Z,12.5
2022-10-14T04:59:51.595Z,12.5
2022-10-14T05:02:51.606Z,12.5
2022-10-14T05:05:51.626Z,12.6
2022-10-14T05:08:51.641Z,12.5
2022-10-14T05:11:51.643Z,12.5
2022-10-14T05:14:51.678Z,12.5
2022-10-14T05:17:51.655Z,12.4
2022-10-14T05:20:51.673Z,12.4
2022-10-14T05:23:51.689Z,12.4
2022-10-14T05:26:51.693Z,12.4
2022-10-14T05:29:51.703Z,12.4
2022-10-14T05:32:51.740Z,12.4
2022-10-14T05:35:58.867Z,12.4
2022-10-14T05:38:51.758Z,12.4
2022-10-14T05:41:51.758Z,12.4
2022-10-14T05:44:51.765Z,12.3
2022-10-14T05:47:51.789Z,12.4
2022-10-14T05:50:51.826Z,12.4
2022-10-14T05:53:51.816Z,12.4
2022-10-14T05:56:51.810Z,12.4
2022-10-14T05:59:51.830Z,12.4
2022-10-14T06:02:51.892Z,12.4
2022-10-14T06:05:51.860Z,12.4
2022-10-14T06:08:51.913Z,12.4
2022-10-14T06:11:51.878Z,12.4
2022-10-14T06:14:51.894Z,12.4
2022-10-14T06:17:51.903Z,12.4
2022-10-14T06:20:51.913Z,12.4
2022-10-14T06:23:51.937Z,12.4
2022-10-14T06:26:51.974Z,12.4
2022-10-14T06:29:51.962Z,12.4
2022-10-14T06:32:51.969Z,12.4
2022-10-14T06:35:51.985Z,12.5
2022-10-14T06:38:52.013Z,12.5
2022-10-14T06:41:52.021Z,12.6
2022-10-14T06:44:52.058Z,12.6
2022-10-14T06:47:52.039Z,12.7
2022-10-14T06:50:52.056Z,12.8
2022-10-14T06:53:52.082Z,12.8
2022-10-14T06:56:52.085Z,12.9
2022-10-14T06:59:52.098Z,12.9
2022-10-14T07:02:52.142Z,12.9
2022-10-14T07:05:52.124Z,13
2022-10-14T07:08:52.177Z,13
2022-10-14T07:11:52.156Z,13.1
2022-10-14T07:14:52.177Z,13.1
2022-10-14T07:17:52.184Z,13.2
2022-10-14T07:20:52.222Z,13.3
2022-10-14T07:23:52.223Z,13.3
2022-10-14T07:26:52.280Z,13.4
2022-10-14T07:29:52.239Z,13.5
2022-10-14T07:32:52.257Z,13.6
2022-10-14T07:35:52.267Z,13.8
2022-10-14T07:38:52.305Z,14
2022-10-14T07:41:52.296Z,14
2022-10-14T07:44:52.307Z,14.1
2022-10-14T07:47:52.320Z,14
2022-10-14T07:50:52.338Z,13.9
2022-10-14T07:53:52.364Z,13.9
2022-10-14T07:56:52.385Z,13.9
2022-10-14T07:59:52.380Z,14.1
2022-10-14T08:02:52.397Z,14.7
2022-10-14T08:05:52.420Z,15.4
2022-10-14T08:08:52.454Z,16.2
2022-10-14T08:11:52.444Z,16.5
2022-10-14T08:14:52.490Z,16.9
2022-10-14T08:17:52.477Z,17.6
2022-10-14T08:20:52.494Z,18
2022-10-14T08:23:52.512Z,17.8
2022-10-14T08:26:52.528Z,17.6
2022-10-14T08:29:52.555Z,17.3
2022-10-14T08:32:52.585Z,17.1
2022-10-14T08:35:54.079Z,16.9
2022-10-14T08:38:52.601Z,16.7
2022-10-14T08:41:52.601Z,16.5
2022-10-14T08:44:52.624Z,16.4
2022-10-14T08:47:52.632Z,16.3
2022-10-14T08:50:52.660Z,16.2
2022-10-14T08:53:52.647Z,16.1
2022-10-14T08:56:52.670Z,16
2022-10-14T08:59:52.676Z,16
2022-10-14T09:02:52.756Z,16
2022-10-14T09:05:52.707Z,16
2022-10-14T09:08:52.833Z,16
2022-10-14T09:11:52.736Z,16.1
2022-10-14T09:14:52.756Z,16.2
2022-10-14T09:17:52.814Z,16.3
2022-10-14T09:20:52.791Z,16.3
2022-10-14T09:23:52.789Z,16.4
2022-10-14T09:26:52.886Z,16.3
2022-10-14T09:29:52.815Z,16.2
2022-10-14T09:32:52.832Z,16.1
2022-10-14T09:35:52.921Z,16.3
2022-10-14T09:38:52.946Z,16.6
2022-10-14T09:41:52.864Z,16.8
2022-10-14T09:44:53.009Z,16.9
2022-10-14T09:47:52.893Z,16.8
2022-10-14T09:50:52.911Z,17
2022-10-14T09:53:52.915Z,17.2
2022-10-14T09:56:52.932Z,17.5
2022-10-14T09:59:52.942Z,17.6
2022-10-14T10:02:52.981Z,17.7
2022-10-14T10:05:52.966Z,17.9
2022-10-14T10:08:52.993Z,17.9
2022-10-14T10:11:53.024Z,17.8
2022-10-14T10:14:53.019Z,17.6
2022-10-14T10:17:53.021Z,17.6
2022-10-14T10:20:53.060Z,17.8
2022-10-14T10:23:53.035Z,18.3
2022-10-14T10:26:53.043Z,18.4
2022-10-14T10:29:53.021Z,18.3
2022-10-14T10:32:53.027Z,18.4
2022-10-14T10:35:53.033Z,18.7
2022-10-14T10:38:53.063Z,19
2022-10-14T10:41:53.026Z,19.1
2022-10-14T10:44:53.031Z,19.1
2022-10-14T10:47:53.030Z,19
2022-10-14T10:50:53.035Z,18.8
2022-10-14T10:53:53.031Z,18.7
2022-10-14T10:56:53.059Z,18.7
2022-10-14T10:59:53.039Z,18.7
2022-10-14T11:02:53.032Z,18.5
2022-10-14T11:05:53.037Z,18.4
2022-10-14T11:08:53.037Z,18.7
2022-10-14T11:11:53.041Z,19.5
2022-10-14T11:14:53.089Z,19.8
2022-10-14T11:17:53.045Z,19.5
2022-10-14T11:20:53.053Z,19.1
2022-10-14T11:23:53.051Z,19
2022-10-14T11:26:53.053Z,19.1
2022-10-14T11:29:53.058Z,18.9
2022-10-14T11:32:53.081Z,18.7
2022-10-14T11:35:53.057Z,18.6
2022-10-14T11:38:53.057Z,18.6
2022-10-14T11:41:53.063Z,18.6
2022-10-14T11:44:53.067Z,18.6
2022-10-14T11:47:53.059Z,18.6
2022-10-14T11:50:53.088Z,18.7
2022-10-14T11:53:53.064Z,19.1
2022-10-14T11:56:53.073Z,19.4
2022-10-14T11:59:53.062Z,19.3
2022-10-14T12:02:53.132Z,19.2
2022-10-14T12:05:53.071Z,19.2
2022-10-14T12:08:53.097Z,19.1
2022-10-14T12:11:53.075Z,19
2022-10-14T12:14:53.073Z,18.8
2022-10-14T12:17:53.080Z,18.7
2022-10-14T12:20:53.082Z,18.6
2022-10-14T12:23:53.084Z,18.7
2022-10-14T12:26:53.121Z,18.7
2022-10-14T12:29:53.084Z,18.7
2022-10-14T12:32:53.088Z,18.9
2022-10-14T12:35:53.092Z,19.1
2022-10-14T12:38:53.098Z,19.1
2022-10-14T12:41:53.107Z,19
2022-10-14T12:44:53.249Z,18.9
2022-10-14T12:47:53.109Z,18.9
2022-10-14T12:50:53.112Z,19
2022-10-14T12:53:53.113Z,19.2
2022-10-14T12:56:53.115Z,19.3
2022-10-14T12:59:53.122Z,19.3
2022-10-14T13:02:53.145Z,19.2
2022-10-14T13:05:53.124Z,19.1
2022-10-14T13:08:53.138Z,19.1
2022-10-14T13:11:53.133Z,19
2022-10-14T13:14:53.132Z,19
2022-10-14T13:17:53.136Z,18.9
2022-10-14T13:20:53.237Z,18.9
2022-10-14T13:23:53.138Z,18.9
2022-10-14T13:26:53.151Z,18.9
2022-10-14T13:29:53.147Z,19
2022-10-14T13:32:53.155Z,19.1
2022-10-14T13:35:53.159Z,19
2022-10-14T13:38:53.192Z,19
2022-10-14T13:41:53.166Z,18.9
2022-10-14T13:44:53.172Z,18.9
2022-10-14T13:47:53.184Z,18.9
2022-10-14T13:50:56.002Z,18.9
2022-10-14T13:53:53.198Z,18.9
2022-10-14T13:57:01.753Z,18.8
2022-10-14T14:02:56.659Z,18.5
2022-10-14T14:05:53.211Z,18.3
2022-10-14T14:08:53.210Z,18.2
2022-10-14T14:11:53.216Z,18.1
2022-10-14T14:14:53.250Z,18.1
2022-10-14T14:17:53.225Z,18
2022-10-14T14:20:53.232Z,18
2022-10-14T14:23:53.233Z,18
2022-10-14T14:26:53.250Z,18.1
2022-10-14T14:29:53.246Z,18.1
2022-10-14T14:32:53.275Z,18.2
2022-10-14T14:35:53.273Z,18.1
2022-10-14T14:38:53.261Z,18.1
2022-10-14T14:41:53.264Z,18.1
2022-10-14T14:44:53.265Z,18.1
2022-10-14T14:47:53.267Z,18.1
2022-10-14T14:50:53.309Z,18
2022-10-14T14:53:53.277Z,17.9
2022-10-14T14:56:53.284Z,17.8
2022-10-14T14:59:53.290Z,17.7
2022-10-14T15:02:53.294Z,17.6
2022-10-14T15:05:53.295Z,17.5
2022-10-14T15:08:53.330Z,17.4
2022-10-14T15:11:53.307Z,17.3
2022-10-14T15:14:53.312Z,17.2
2022-10-14T15:17:53.307Z,17.1
2022-10-14T15:20:53.324Z,17
2022-10-14T15:23:53.331Z,17
2022-10-14T15:26:53.353Z,16.9
2022-10-14T15:29:53.336Z,16.9
2022-10-14T15:32:53.335Z,16.8
2022-10-14T15:35:53.339Z,16.8
2022-10-14T15:38:53.340Z,16.7
2022-10-14T15:41:53.348Z,16.7
2022-10-14T15:44:53.390Z,16.6
2022-10-14T15:47:53.444Z,16.6
2022-10-14T15:50:53.353Z,16.6
2022-10-14T15:53:53.359Z,16.5
2022-10-14T15:56:53.416Z,16.5
2022-10-14T15:59:53.373Z,16.5
2022-10-14T16:02:53.405Z,16.4
2022-10-14T16:05:53.444Z,16.4
2022-10-14T16:08:53.408Z,16.3
2022-10-14T16:11:53.394Z,16.2
2022-10-14T16:14:53.439Z,16.2
2022-10-14T16:17:53.404Z,16.2
2022-10-14T16:20:53.423Z,16.1
2022-10-14T16:23:53.393Z,16.1
2022-10-14T16:26:53.389Z,16
2022-10-14T16:29:53.392Z,16
2022-10-14T16:32:53.404Z,16
2022-10-14T16:35:53.396Z,15.9
2022-10-14T16:38:53.435Z,15.9
2022-10-14T16:41:53.408Z,15.9
2022-10-14T16:44:53.411Z,15.9
2022-10-14T16:47:53.418Z,15.8
2022-10-14T16:50:53.432Z,15.8
2022-10-14T16:53:53.437Z,15.8
2022-10-14T16:56:53.476Z,15.7
2022-10-14T16:59:53.456Z,15.7
2022-10-14T17:02:53.468Z,15.7
2022-10-14T17:05:53.466Z,15.7
2022-10-14T17:08:53.479Z,15.7
2022-10-14T17:11:53.481Z,15.7
2022-10-14T17:14:53.513Z,15.7
2022-10-14T17:17:53.493Z,15.6
2022-10-14T17:20:53.500Z,15.6
2022-10-14T17:23:53.512Z,15.6
2022-10-14T17:26:53.509Z,15.6
2022-10-14T17:29:53.527Z,15.6
2022-10-14T17:32:53.560Z,15.6
2022-10-14T17:35:53.540Z,15.6
2022-10-14T17:38:53.570Z,15.5
2022-10-14T17:41:53.568Z,15.5
2022-10-14T17:44:53.571Z,15.5
2022-10-14T17:47:53.573Z,15.5
2022-10-14T17:50:53.701Z,15.5
2022-10-14T17:53:53.605Z,15.4
2022-10-14T17:56:53.608Z,15.4
2022-10-14T17:59:53.618Z,15.4
2022-10-14T18:02:53.632Z,15.4
2022-10-14T18:05:53.659Z,15.4
2022-10-14T18:08:53.677Z,15.5
2022-10-14T18:12:08.018Z,15.5
2022-10-14T18:14:53.678Z,15.4
2022-10-14T18:17:53.687Z,15.5
2022-10-14T18:20:53.693Z,15.5
2022-10-14T18:23:53.695Z,15.4
2022-10-14T18:26:53.751Z,15.4
2022-10-14T18:29:53.710Z,15.4
2022-10-14T18:32:53.732Z,15.4
2022-10-14T18:35:53.736Z,15.3
2022-10-14T18:38:53.753Z,15.3
2022-10-14T18:41:53.770Z,15.3
2022-10-14T18:44:53.867Z,15.4
2022-10-14T18:47:53.784Z,15.3
2022-10-14T18:50:53.838Z,15.3
2022-10-14T18:53:53.807Z,15.3
2022-10-14T18:56:53.811Z,15.4
2022-10-14T18:59:53.824Z,15.3
2022-10-14T19:02:53.861Z,15.4
2022-10-14T19:05:53.850Z,15.3
2022-10-14T19:08:53.855Z,15.3
2022-10-14T19:11:53.868Z,15.3
2022-10-14T19:14:53.880Z,15.4
2022-10-14T19:17:54.473Z,15.4
2022-10-14T19:20:53.922Z,15.4
2022-10-14T19:23:53.907Z,15.4
2022-10-14T19:26:53.923Z,15.4
2022-10-14T19:29:53.934Z,15.4
2022-10-14T19:32:53.940Z,15.4
2022-10-14T19:35:53.945Z,15.4
2022-10-14T19:38:53.989Z,15.4
2022-10-14T19:41:53.968Z,15.4
2022-10-14T19:44:53.983Z,15.3
2022-10-14T19:47:53.991Z,15.3
2022-10-14T19:50:53.996Z,15.2
2022-10-14T19:53:54.015Z,15.2
2022-10-14T19:56:54.050Z,15.1
2022-10-14T19:59:54.038Z,15.1
2022-10-14T20:02:54.045Z,15
2022-10-14T20:05:54.052Z,15
2022-10-14T20:08:54.069Z,15
2022-10-14T20:11:54.091Z,15
2022-10-14T20:14:54.120Z,14.9
2022-10-14T20:17:54.114Z,14.9
2022-10-14T20:20:54.121Z,14.9
2022-10-14T20:23:54.135Z,14.9
2022-10-14T20:26:54.150Z,14.9
2022-10-14T20:29:54.166Z,14.9
2022-10-14T20:32:54.203Z,14.9
2022-10-14T20:35:54.186Z,14.8
2022-10-14T20:38:54.197Z,14.7
2022-10-14T20:41:54.215Z,14.6
2022-10-14T20:44:54.228Z,14.5
2022-10-14T20:47:54.242Z,14.4
2022-10-14T20:50:54.278Z,14.3
2022-10-14T20:53:55.617Z,14.1
2022-10-14T20:56:54.277Z,14
2022-10-14T20:59:54.285Z,13.9
2022-10-14T21:02:54.302Z,13.9
2022-10-14T21:05:54.315Z,13.8
2022-10-14T21:08:54.353Z,13.8
2022-10-14T21:14:54.355Z,13.7
2022-10-14T21:17:54.370Z,13.7
2022-10-14T21:20:54.393Z,13.7
2022-10-14T21:23:54.407Z,13.7
2022-10-14T21:26:54.446Z,13.7
2022-10-14T21:32:54.444Z,13.7
2022-10-14T21:35:54.457Z,13.7
2022-10-14T21:41:54.492Z,13.7
2022-10-14T21:44:54.528Z,13.7
2022-10-14T21:47:54.565Z,13.7
2022-10-14T21:50:54.526Z,13.7
2022-10-14T21:53:54.544Z,13.6
2022-10-14T21:59:54.591Z,13.6
2022-10-14T22:02:54.617Z,13.6
2022-10-14T22:05:54.685Z,13.6
2022-10-14T22:08:54.629Z,13.6
2022-10-14T22:11:54.640Z,13.6
2022-10-14T22:14:54.720Z,13.6
2022-10-14T22:17:54.670Z,13.6
2022-10-14T22:20:54.709Z,13.6
2022-10-14T22:23:54.778Z,13.6
2022-10-14T22:26:54.720Z,13.6
2022-10-14T22:29:54.731Z,13.6
2022-10-14T22:32:54.795Z,13.6
2022-10-14T22:35:54.765Z,13.7
2022-10-14T22:38:54.801Z,13.7
2022-10-14T22:41:54.794Z,13.7
2022-10-14T22:44:54.815Z,13.7
2022-10-14T22:47:54.836Z,13.7
2022-10-14T22:50:54.857Z,13.7
2022-10-14T22:53:54.872Z,13.7
2022-10-14T22:56:55.044Z,13.7
2022-10-14T22:59:54.905Z,13.7
2022-10-14T23:02:54.977Z,13.7
2022-10-14T23:05:54.943Z,13.7
2022-10-14T23:08:54.962Z,13.7
2022-10-14T23:11:54.978Z,13.7
2022-10-14T23:14:55.017Z,13.7
2022-10-14T23:17:55.007Z,13.7
2022-10-14T23:20:55.034Z,13.7
2022-10-14T23:23:55.057Z,13.7
2022-10-14T23:26:55.071Z,13.7
2022-10-14T23:29:55.089Z,13.7
2022-10-14T23:32:55.145Z,13.7
2022-10-14T23:35:55.126Z,13.7
2022-10-14T23:38:55.145Z,13.7
2022-10-14T23:41:55.173Z,13.7
2022-10-14T23:44:55.189Z,13.8
2022-10-14T23:47:55.204Z,13.8
2022-10-14T23:50:55.273Z,13.8
2022-10-14T23:53:55.251Z,13.8
2022-10-14T23:56:55.277Z,13.8
2022-10-14T23:59:55.295Z,13.8
